createdAt,value
2022-10-02T00:02:11.030Z,1010.29
2022-10-02T00:08:30.999Z,1010.29
2022-10-02T00:14:54.017Z,1010.33
2022-10-02T00:21:13.998Z,1010.43
2022-10-02T00:27:36.983Z,1010.45
2022-10-02T00:33:57.018Z,1010.43
2022-10-02T00:40:19.997Z,1010.43
2022-10-02T00:46:40.004Z,1010.43
2022-10-02T00:53:02.997Z,1010.51
2022-10-02T00:59:22.986Z,1010.51
2022-10-02T01:05:46.032Z,1010.65
2022-10-02T01:12:06.012Z,1010.67
2022-10-02T01:18:29.025Z,1010.71
2022-10-02T01:24:49.015Z,1010.71
2022-10-02T01:31:12.104Z,1010.65
2022-10-02T01:37:31.981Z,1010.73
2022-10-02T01:43:54.982Z,1010.81
2022-10-02T01:50:15.010Z,1010.79
2022-10-02T01:56:38.296Z,1010.81
2022-10-02T02:02:57.982Z,1010.85
2022-10-02T02:09:21.012Z,1010.81
2022-10-02T02:15:40.986Z,1010.79
2022-10-02T02:22:04.004Z,1010.81
2022-10-02T02:28:24.044Z,1010.81
2022-10-02T02:34:46.976Z,1010.75
2022-10-02T02:41:06.985Z,1010.69
2022-10-02T02:47:30.000Z,1010.63
2022-10-02T02:53:50.011Z,1010.53
2022-10-02T03:00:12.975Z,1010.69
2022-10-02T03:06:33.250Z,1010.69
2022-10-02T03:12:55.977Z,1010.67
2022-10-02T03:19:15.978Z,1010.69
2022-10-02T03:35:44.968Z,1010.69
2022-10-02T03:42:04.972Z,1010.81
2022-10-02T03:48:27.998Z,1010.79
2022-10-02T03:54:48.005Z,1010.77
2022-10-02T04:01:10.977Z,1010.71
2022-10-02T04:07:30.984Z,1010.71
2022-10-02T04:13:53.994Z,1010.73
2022-10-02T04:20:14.001Z,1010.71
2022-10-02T04:26:37.253Z,1010.73
2022-10-02T04:32:56.986Z,1010.77
2022-10-02T04:39:19.991Z,1010.79
2022-10-02T04:45:39.979Z,1010.85
2022-10-02T04:52:03.025Z,1010.89
2022-10-02T04:58:22.973Z,1010.91
2022-10-02T05:04:45.991Z,1010.99
2022-10-02T05:11:06.021Z,1010.99
2022-10-02T05:17:28.967Z,1011.01
2022-10-02T05:23:48.980Z,1011.01
2022-10-02T05:30:12.014Z,1010.97
2022-10-02T05:36:31.971Z,1011.03
2022-10-02T05:42:54.987Z,1011.05
2022-10-02T05:49:14.993Z,1011.09
2022-10-02T05:55:37.992Z,1011.16
2022-10-02T06:01:58.065Z,1011.18
2022-10-02T06:08:21.003Z,1011.16
2022-10-02T06:14:41.059Z,1011.22
2022-10-02T06:21:04.000Z,1011.3
2022-10-02T06:27:24.016Z,1011.36
2022-10-02T06:33:46.979Z,1011.36
2022-10-02T06:40:06.983Z,1011.42
2022-10-02T06:46:30.013Z,1011.53
2022-10-02T06:52:49.989Z,1011.65
2022-10-02T06:59:12.983Z,1011.69
2022-10-02T07:05:33.048Z,1011.73
2022-10-02T07:11:55.979Z,1011.71
2022-10-02T07:18:16.002Z,1011.77
2022-10-02T07:24:39.011Z,1011.81
2022-10-02T07:30:58.997Z,1011.89
2022-10-02T07:37:22.005Z,1011.95
2022-10-02T07:43:42.031Z,1011.95
2022-10-02T07:50:04.999Z,1011.93
2022-10-02T07:56:24.984Z,1011.93
2022-10-02T08:02:48.044Z,1012
2022-10-02T08:09:08.008Z,1012.08
2022-10-02T08:15:30.980Z,1012.18
2022-10-02T08:21:51.026Z,1012.16
2022-10-02T08:28:14.065Z,1012.18
2022-10-02T08:34:34.015Z,1012.2
2022-10-02T08:57:39.985Z,1012.26
2022-10-02T09:04:02.968Z,1012.2
2022-10-02T09:10:23.001Z,1012.22
2022-10-02T09:16:46.065Z,1012.24
2022-10-02T09:23:06.010Z,1012.28
2022-10-02T09:29:29.001Z,1012.3
2022-10-02T09:35:49.002Z,1012.38
2022-10-02T09:42:11.983Z,1012.34
2022-10-02T09:48:31.987Z,1012.36
2022-10-02T09:54:55.025Z,1012.36
2022-10-02T10:01:15.058Z,1012.38
2022-10-02T10:07:37.986Z,1012.38
2022-10-02T10:13:58.007Z,1012.42
2022-10-02T10:20:20.989Z,1012.43
2022-10-02T10:26:40.992Z,1012.43
2022-10-02T12:13:17.981Z,1013.06
2022-10-02T12:19:40.994Z,1013
2022-10-02T12:26:00.985Z,1013
2022-10-02T12:32:24.007Z,1013
2022-10-02T12:38:43.980Z,1012.96
2022-10-02T12:45:11.504Z,1012.94
2022-10-02T12:51:27.030Z,1012.94
2022-10-02T12:57:49.989Z,1012.98
2022-10-02T13:04:10.017Z,1013.04
2022-10-02T13:10:33.008Z,1013
2022-10-02T13:16:53.085Z,1012.94
2022-10-02T13:23:16.021Z,1012.9
2022-10-02T13:29:36.012Z,1012.89
2022-10-02T13:35:59.013Z,1012.9
2022-10-02T13:42:21.974Z,1012.9
2022-10-02T13:48:45.019Z,1012.92
2022-10-02T13:55:05.002Z,1012.96
2022-10-02T14:01:28.016Z,1013.02
2022-10-02T14:07:48.021Z,1013.1
2022-10-02T14:14:10.982Z,1013.23
2022-10-02T14:20:31.010Z,1013.25
2022-10-02T14:26:54.013Z,1013.25
2022-10-02T14:33:14.007Z,1013.3
2022-10-02T14:39:37.003Z,1013.38
2022-10-02T14:45:57.090Z,1013.44
2022-10-02T14:52:20.013Z,1013.44
2022-10-02T14:58:40.009Z,1013.48
2022-10-02T15:05:04.460Z,1013.5
2022-10-02T15:11:23.010Z,1013.5
2022-10-02T15:17:46.014Z,1013.54
2022-10-02T15:24:06.018Z,1013.52
2022-10-02T15:30:28.991Z,1013.52
2022-10-02T15:36:48.985Z,1013.6
2022-10-02T15:43:12.002Z,1013.66
2022-10-02T15:49:32.027Z,1013.72
2022-10-02T15:55:55.150Z,1013.72
2022-10-02T16:02:15.260Z,1013.75
2022-10-02T16:08:37.998Z,1013.79
2022-10-02T16:14:57.991Z,1013.83
2022-10-02T16:21:20.999Z,1013.91
2022-10-02T16:27:41.014Z,1013.97
2022-10-02T16:34:03.995Z,1014.05
2022-10-02T16:40:24.042Z,1014.15
2022-10-02T16:46:47.121Z,1014.26
2022-10-02T16:53:07.009Z,1014.38
2022-10-02T16:59:30.299Z,1014.46
2022-10-02T17:05:49.990Z,1014.54
2022-10-02T17:28:39.011Z,1014.93
2022-10-02T17:35:01.971Z,1015.03
2022-10-02T17:41:21.989Z,1015.15
2022-10-02T17:47:45.011Z,1015.26
2022-10-02T17:54:04.978Z,1015.4
2022-10-02T18:00:27.983Z,1015.54
2022-10-02T18:06:48.004Z,1015.65
2022-10-02T18:13:10.979Z,1015.84
2022-10-02T18:19:30.971Z,1015.94
2022-10-02T18:25:54.012Z,1016.03
2022-10-02T18:32:13.979Z,1016.13
2022-10-02T18:38:36.991Z,1016.21
2022-10-02T18:44:56.997Z,1016.29
2022-10-02T18:51:19.973Z,1016.39
2022-10-02T18:57:40.004Z,1016.5
2022-10-02T19:04:03.031Z,1016.58
2022-10-02T19:10:22.987Z,1016.66
2022-10-02T19:16:46.010Z,1016.74
2022-10-02T19:23:05.998Z,1016.82
2022-10-02T19:29:29.000Z,1016.92
2022-10-02T19:35:48.974Z,1016.97
2022-10-02T19:42:11.999Z,1017.07
2022-10-02T19:48:31.992Z,1017.23
2022-10-02T19:54:54.977Z,1017.34
2022-10-02T20:01:15.092Z,1017.42
2022-10-02T20:07:37.982Z,1017.48
2022-10-02T20:13:58.011Z,1017.58
2022-10-02T20:20:21.010Z,1017.68
2022-10-02T20:26:40.984Z,1017.72
2022-10-02T20:33:04.012Z,1017.76
2022-10-02T20:39:24.010Z,1017.81
2022-10-02T20:45:47.142Z,1017.93
2022-10-02T20:52:06.967Z,1017.99
2022-10-02T20:58:29.997Z,1018.09
2022-10-02T21:04:49.996Z,1018.15
2022-10-02T21:11:12.978Z,1018.27
2022-10-02T21:17:33.019Z,1018.45
2022-10-02T21:23:55.977Z,1018.51
2022-10-02T21:30:15.987Z,1018.59
2022-10-02T21:36:39.387Z,1018.69
2022-10-02T21:42:58.971Z,1018.74
2022-10-02T21:49:22.004Z,1018.84
2022-10-02T21:55:42.017Z,1018.88
2022-10-02T22:19:59.009Z,1019.23
2022-10-02T22:26:18.983Z,1019.29
2022-10-02T22:32:42.018Z,1019.35
2022-10-02T22:39:02.004Z,1019.39
2022-10-02T22:45:24.972Z,1019.43
2022-10-02T22:51:44.994Z,1019.49
2022-10-02T22:58:08.018Z,1019.51
2022-10-02T23:04:28.009Z,1019.6
2022-10-02T23:10:50.996Z,1019.66
2022-10-02T23:17:11.012Z,1019.72
2022-10-02T23:23:33.981Z,1019.74
2022-10-02T23:29:53.988Z,1019.74
2022-10-02T23:36:17.022Z,1019.8
2022-10-02T23:42:36.969Z,1019.78
2022-10-02T23:49:00.023Z,1019.78
2022-10-02T23:55:20.013Z,1019.82
